sensor_id;sensor_type;location;lat;lon;timestamp;P1;durP1;ratioP1;P2;durP2;ratioP2
79178;SDS011;68608;49.904;16.436;2023-08-12T00:00:28;5.20;;;4.78;;
79178;SDS011;68608;49.904;16.436;2023-08-12T00:02:54;6.57;;;5.97;;
79178;SDS011;68608;49.904;16.436;2023-08-12T00:05:21;5.32;;;4.82;;
79178;SDS011;68608;49.904;16.436;2023-08-12T00:07:47;7.25;;;6.45;;
79178;SDS011;68608;49.904;16.436;2023-08-12T00:10:14;5.20;;;4.78;;
79178;SDS011;68608;49.904;16.436;2023-08-12T00:12:40;7.00;;;6.30;;
79178;SDS011;68608;49.904;16.436;2023-08-12T00:15:07;5.15;;;4.75;;
79178;SDS011;68608;49.904;16.436;2023-08-12T00:17:33;6.78;;;6.15;;
79178;SDS011;68608;49.904;16.436;2023-08-12T00:20:03;5.28;;;4.78;;
79178;SDS011;68608;49.904;16.436;2023-08-12T00:22:35;6.47;;;5.70;;
79178;SDS011;68608;49.904;16.436;2023-08-12T00:25:01;4.72;;;4.28;;
79178;SDS011;68608;49.904;16.436;2023-08-12T00:27:28;6.20;;;5.63;;
79178;SDS011;68608;49.904;16.436;2023-08-12T00:29:54;6.88;;;5.00;;
79178;SDS011;68608;49.904;16.436;2023-08-12T00:32:20;6.18;;;5.57;;
79178;SDS011;68608;49.904;16.436;2023-08-12T00:34:46;4.90;;;4.50;;
79178;SDS011;68608;49.904;16.436;2023-08-12T00:37:12;7.28;;;6.07;;
79178;SDS011;68608;49.904;16.436;2023-08-12T00:39:38;5.15;;;4.68;;
79178;SDS011;68608;49.904;16.436;2023-08-12T00:42:04;6.50;;;5.88;;
79178;SDS011;68608;49.904;16.436;2023-08-12T00:44:30;4.95;;;4.55;;
79178;SDS011;68608;49.904;16.436;2023-08-12T00:46:56;7.28;;;5.72;;
79178;SDS011;68608;49.904;16.436;2023-08-12T00:49:23;6.40;;;5.00;;
79178;SDS011;68608;49.904;16.436;2023-08-12T00:51:49;5.72;;;5.22;;
79178;SDS011;68608;49.904;16.436;2023-08-12T00:54:16;4.97;;;4.30;;
79178;SDS011;68608;49.904;16.436;2023-08-12T00:56:42;6.72;;;6.05;;
79178;SDS011;68608;49.904;16.436;2023-08-12T00:59:09;6.97;;;4.80;;
79178;SDS011;68608;49.904;16.436;2023-08-12T01:01:35;6.65;;;6.05;;
79178;SDS011;68608;49.904;16.436;2023-08-12T01:04:03;5.10;;;4.63;;
79178;SDS011;68608;49.904;16.436;2023-08-12T01:06:29;6.97;;;6.28;;
79178;SDS011;68608;49.904;16.436;2023-08-12T01:08:55;5.32;;;4.88;;
79178;SDS011;68608;49.904;16.436;2023-08-12T01:11:29;5.05;;;4.60;;
79178;SDS011;68608;49.904;16.436;2023-08-12T01:14:00;6.32;;;5.82;;
79178;SDS011;68608;49.904;16.436;2023-08-12T01:16:31;4.47;;;4.07;;
79178;SDS011;68608;49.904;16.436;2023-08-12T01:19:01;8.82;;;5.60;;
79178;SDS011;68608;49.904;16.436;2023-08-12T01:21:27;4.93;;;4.53;;
79178;SDS011;68608;49.904;16.436;2023-08-12T01:23:55;6.97;;;6.30;;
79178;SDS011;68608;49.904;16.436;2023-08-12T01:26:21;5.50;;;5.00;;
79178;SDS011;68608;49.904;16.436;2023-08-12T01:28:47;6.47;;;5.88;;
79178;SDS011;68608;49.904;16.436;2023-08-12T01:31:33;5.22;;;4.72;;
79178;SDS011;68608;49.904;16.436;2023-08-12T01:34:09;7.50;;;6.80;;
79178;SDS011;68608;49.904;16.436;2023-08-12T01:36:37;6.38;;;5.78;;
79178;SDS011;68608;49.904;16.436;2023-08-12T01:39:05;10.02;;;7.38;;
79178;SDS011;68608;49.904;16.436;2023-08-12T01:41:32;6.32;;;5.72;;
79178;SDS011;68608;49.904;16.436;2023-08-12T01:43:58;8.73;;;7.93;;
79178;SDS011;68608;49.904;16.436;2023-08-12T01:46:24;7.50;;;6.75;;
79178;SDS011;68608;49.904;16.436;2023-08-12T01:48:50;9.45;;;8.15;;
79178;SDS011;68608;49.904;16.436;2023-08-12T01:51:16;7.15;;;6.45;;
79178;SDS011;68608;49.904;16.436;2023-08-12T01:53:42;8.95;;;7.40;;
79178;SDS011;68608;49.904;16.436;2023-08-12T01:56:08;5.93;;;5.43;;
79178;SDS011;68608;49.904;16.436;2023-08-12T01:58:34;7.50;;;6.78;;
79178;SDS011;68608;49.904;16.436;2023-08-12T02:01:00;5.00;;;4.57;;
79178;SDS011;68608;49.904;16.436;2023-08-12T02:03:26;6.95;;;6.20;;
79178;SDS011;68608;49.904;16.436;2023-08-12T02:05:53;5.20;;;4.65;;
79178;SDS011;68608;49.904;16.436;2023-08-12T02:08:19;6.88;;;6.28;;
79178;SDS011;68608;49.904;16.436;2023-08-12T02:10:45;5.55;;;4.95;;
79178;SDS011;68608;49.904;16.436;2023-08-12T02:13:11;9.32;;;7.15;;
79178;SDS011;68608;49.904;16.436;2023-08-12T02:15:37;6.45;;;5.88;;
79178;SDS011;68608;49.904;16.436;2023-08-12T02:18:03;8.70;;;8.00;;
79178;SDS011;68608;49.904;16.436;2023-08-12T02:20:29;8.73;;;7.82;;
79178;SDS011;68608;49.904;16.436;2023-08-12T02:22:55;5.72;;;5.22;;
79178;SDS011;68608;49.904;16.436;2023-08-12T02:25:21;7.50;;;6.85;;
79178;SDS011;68608;49.904;16.436;2023-08-12T02:27:47;7.60;;;6.75;;
79178;SDS011;68608;49.904;16.436;2023-08-12T02:30:16;6.40;;;5.80;;
79178;SDS011;68608;49.904;16.436;2023-08-12T02:32:42;7.90;;;6.55;;
79178;SDS011;68608;49.904;16.436;2023-08-12T02:35:09;6.03;;;5.47;;
79178;SDS011;68608;49.904;16.436;2023-08-12T02:37:35;7.53;;;6.82;;
79178;SDS011;68608;49.904;16.436;2023-08-12T02:40:02;6.43;;;5.82;;
79178;SDS011;68608;49.904;16.436;2023-08-12T02:42:29;7.40;;;6.70;;
79178;SDS011;68608;49.904;16.436;2023-08-12T02:44:55;11.52;;;7.97;;
79178;SDS011;68608;49.904;16.436;2023-08-12T02:47:25;8.88;;;7.57;;
79178;SDS011;68608;49.904;16.436;2023-08-12T02:49:51;9.20;;;8.40;;
79178;SDS011;68608;49.904;16.436;2023-08-12T02:52:17;7.50;;;6.80;;
79178;SDS011;68608;49.904;16.436;2023-08-12T02:54:43;10.68;;;8.15;;
79178;SDS011;68608;49.904;16.436;2023-08-12T02:57:09;9.43;;;8.13;;
79178;SDS011;68608;49.904;16.436;2023-08-12T02:59:35;8.88;;;5.97;;
79178;SDS011;68608;49.904;16.436;2023-08-12T03:02:01;9.40;;;7.72;;
79178;SDS011;68608;49.904;16.436;2023-08-12T03:04:28;6.22;;;5.72;;
79178;SDS011;68608;49.904;16.436;2023-08-12T03:06:54;9.20;;;8.07;;
79178;SDS011;68608;49.904;16.436;2023-08-12T03:09:21;7.03;;;6.43;;
79178;SDS011;68608;49.904;16.436;2023-08-12T03:11:47;7.45;;;6.75;;
79178;SDS011;68608;49.904;16.436;2023-08-12T03:14:13;6.78;;;5.93;;
79178;SDS011;68608;49.904;16.436;2023-08-12T03:16:39;10.15;;;9.02;;
79178;SDS011;68608;49.904;16.436;2023-08-12T03:19:05;7.80;;;7.05;;
79178;SDS011;68608;49.904;16.436;2023-08-12T03:21:31;13.20;;;8.77;;
79178;SDS011;68608;49.904;16.436;2023-08-12T03:23:57;8.02;;;7.32;;
79178;SDS011;68608;49.904;16.436;2023-08-12T03:26:23;12.15;;;9.25;;
79178;SDS011;68608;49.904;16.436;2023-08-12T03:28:49;7.22;;;6.60;;
79178;SDS011;68608;49.904;16.436;2023-08-12T03:31:15;12.52;;;9.73;;
79178;SDS011;68608;49.904;16.436;2023-08-12T03:33:41;7.75;;;6.95;;
79178;SDS011;68608;49.904;16.436;2023-08-12T03:36:08;9.70;;;8.80;;
79178;SDS011;68608;49.904;16.436;2023-08-12T03:38:34;11.30;;;10.32;;
79178;SDS011;68608;49.904;16.436;2023-08-12T03:41:01;7.68;;;6.90;;
79178;SDS011;68608;49.904;16.436;2023-08-12T03:43:27;8.75;;;7.47;;
79178;SDS011;68608;49.904;16.436;2023-08-12T03:45:53;7.53;;;6.43;;
79178;SDS011;68608;49.904;16.436;2023-08-12T03:48:20;9.95;;;8.95;;
79178;SDS011;68608;49.904;16.436;2023-08-12T03:50:46;7.18;;;6.47;;
79178;SDS011;68608;49.904;16.436;2023-08-12T03:53:12;10.70;;;9.68;;
79178;SDS011;68608;49.904;16.436;2023-08-12T03:55:38;7.10;;;6.50;;
79178;SDS011;68608;49.904;16.436;2023-08-12T03:58:04;10.05;;;9.18;;
79178;SDS011;68608;49.904;16.436;2023-08-12T04:00:31;7.32;;;6.60;;
79178;SDS011;68608;49.904;16.436;2023-08-12T04:02:57;10.27;;;8.77;;
79178;SDS011;68608;49.904;16.436;2023-08-12T04:05:23;7.90;;;6.85;;
79178;SDS011;68608;49.904;16.436;2023-08-12T04:07:49;10.10;;;9.18;;
79178;SDS011;68608;49.904;16.436;2023-08-12T04:10:15;6.93;;;6.32;;
79178;SDS011;68608;49.904;16.436;2023-08-12T04:12:41;11.82;;;8.95;;
79178;SDS011;68608;49.904;16.436;2023-08-12T04:15:08;7.03;;;6.40;;
79178;SDS011;68608;49.904;16.436;2023-08-12T04:17:34;8.18;;;7.47;;
79178;SDS011;68608;49.904;16.436;2023-08-12T04:20:00;6.38;;;5.78;;
79178;SDS011;68608;49.904;16.436;2023-08-12T04:22:30;7.82;;;7.13;;
79178;SDS011;68608;49.904;16.436;2023-08-12T04:24:56;5.40;;;4.95;;
79178;SDS011;68608;49.904;16.436;2023-08-12T04:27:22;6.78;;;6.18;;
79178;SDS011;68608;49.904;16.436;2023-08-12T04:29:49;5.78;;;5.28;;
79178;SDS011;68608;49.904;16.436;2023-08-12T04:32:15;8.48;;;6.18;;
79178;SDS011;68608;49.904;16.436;2023-08-12T04:34:41;5.63;;;5.15;;
79178;SDS011;68608;49.904;16.436;2023-08-12T04:37:07;6.07;;;5.55;;
79178;SDS011;68608;49.904;16.436;2023-08-12T04:39:33;6.35;;;5.25;;
79178;SDS011;68608;49.904;16.436;2023-08-12T04:41:59;5.90;;;5.18;;
79178;SDS011;68608;49.904;16.436;2023-08-12T04:44:25;5.53;;;5.03;;
79178;SDS011;68608;49.904;16.436;2023-08-12T04:46:51;7.90;;;5.05;;
79178;SDS011;68608;49.904;16.436;2023-08-12T04:49:17;6.38;;;5.10;;
79178;SDS011;68608;49.904;16.436;2023-08-12T04:51:43;6.38;;;4.93;;
79178;SDS011;68608;49.904;16.436;2023-08-12T04:54:09;7.53;;;4.85;;
79178;SDS011;68608;49.904;16.436;2023-08-12T04:56:35;6.15;;;4.95;;
79178;SDS011;68608;49.904;16.436;2023-08-12T04:59:01;6.30;;;5.10;;
79178;SDS011;68608;49.904;16.436;2023-08-12T05:01:27;6.03;;;5.47;;
79178;SDS011;68608;49.904;16.436;2023-08-12T05:03:53;5.85;;;5.28;;
79178;SDS011;68608;49.904;16.436;2023-08-12T05:06:19;5.80;;;5.28;;
79178;SDS011;68608;49.904;16.436;2023-08-12T05:08:46;5.30;;;4.40;;
79178;SDS011;68608;49.904;16.436;2023-08-12T05:11:12;5.38;;;4.55;;
79178;SDS011;68608;49.904;16.436;2023-08-12T05:13:38;5.50;;;5.00;;
79178;SDS011;68608;49.904;16.436;2023-08-12T05:16:04;7.18;;;4.60;;
79178;SDS011;68608;49.904;16.436;2023-08-12T05:18:30;5.22;;;4.72;;
79178;SDS011;68608;49.904;16.436;2023-08-12T05:20:56;4.85;;;4.35;;
79178;SDS011;68608;49.904;16.436;2023-08-12T05:23:23;4.63;;;4.22;;
79178;SDS011;68608;49.904;16.436;2023-08-12T05:25:50;5.93;;;4.40;;
79178;SDS011;68608;49.904;16.436;2023-08-12T05:28:16;4.47;;;4.07;;
79178;SDS011;68608;49.904;16.436;2023-08-12T05:30:42;4.93;;;4.53;;
79178;SDS011;68608;49.904;16.436;2023-08-12T05:33:08;5.03;;;4.60;;
79178;SDS011;68608;49.904;16.436;2023-08-12T05:35:34;4.20;;;3.70;;
79178;SDS011;68608;49.904;16.436;2023-08-12T05:38:01;3.65;;;3.35;;
79178;SDS011;68608;49.904;16.436;2023-08-12T05:40:27;4.88;;;4.35;;
79178;SDS011;68608;49.904;16.436;2023-08-12T05:42:53;5.15;;;4.32;;
79178;SDS011;68608;49.904;16.436;2023-08-12T05:45:20;5.97;;;4.13;;
79178;SDS011;68608;49.904;16.436;2023-08-12T05:47:46;4.15;;;3.75;;
79178;SDS011;68608;49.904;16.436;2023-08-12T05:50:12;3.95;;;3.65;;
79178;SDS011;68608;49.904;16.436;2023-08-12T05:52:38;4.05;;;3.40;;
79178;SDS011;68608;49.904;16.436;2023-08-12T05:55:04;4.68;;;3.75;;
79178;SDS011;68608;49.904;16.436;2023-08-12T05:57:30;4.47;;;3.35;;
79178;SDS011;68608;49.904;16.436;2023-08-12T05:59:56;3.53;;;3.22;;
79178;SDS011;68608;49.904;16.436;2023-08-12T06:02:25;4.30;;;3.17;;
79178;SDS011;68608;49.904;16.436;2023-08-12T06:04:51;2.75;;;2.55;;
79178;SDS011;68608;49.904;16.436;2023-08-12T06:07:18;5.10;;;2.78;;
79178;SDS011;68608;49.904;16.436;2023-08-12T06:09:44;2.88;;;2.40;;
79178;SDS011;68608;49.904;16.436;2023-08-12T06:12:10;3.03;;;2.72;;
79178;SDS011;68608;49.904;16.436;2023-08-12T06:14:39;3.35;;;2.90;;
79178;SDS011;68608;49.904;16.436;2023-08-12T06:17:05;3.40;;;2.83;;
79178;SDS011;68608;49.904;16.436;2023-08-12T06:19:34;3.92;;;2.95;;
79178;SDS011;68608;49.904;16.436;2023-08-12T06:22:01;3.33;;;2.95;;
79178;SDS011;68608;49.904;16.436;2023-08-12T06:24:28;3.50;;;2.50;;
79178;SDS011;68608;49.904;16.436;2023-08-12T06:26:54;2.28;;;2.08;;
79178;SDS011;68608;49.904;16.436;2023-08-12T06:29:20;2.45;;;2.25;;
79178;SDS011;68608;49.904;16.436;2023-08-12T06:31:46;5.03;;;3.00;;
79178;SDS011;68608;49.904;16.436;2023-08-12T06:34:12;3.40;;;3.10;;
79178;SDS011;68608;49.904;16.436;2023-08-12T06:36:38;3.67;;;2.72;;
79178;SDS011;68608;49.904;16.436;2023-08-12T06:39:04;2.95;;;2.65;;
79178;SDS011;68608;49.904;16.436;2023-08-12T06:41:30;3.08;;;2.70;;
79178;SDS011;68608;49.904;16.436;2023-08-12T06:43:59;3.88;;;2.30;;
79178;SDS011;68608;49.904;16.436;2023-08-12T06:46:26;3.75;;;3.03;;
79178;SDS011;68608;49.904;16.436;2023-08-12T06:48:53;3.40;;;3.10;;
79178;SDS011;68608;49.904;16.436;2023-08-12T06:51:19;4.03;;;2.60;;
79178;SDS011;68608;49.904;16.436;2023-08-12T06:53:45;4.80;;;3.03;;
79178;SDS011;68608;49.904;16.436;2023-08-12T06:56:13;2.92;;;2.63;;
79178;SDS011;68608;49.904;16.436;2023-08-12T06:58:44;3.40;;;2.78;;
79178;SDS011;68608;49.904;16.436;2023-08-12T07:01:10;4.07;;;2.17;;
79178;SDS011;68608;49.904;16.436;2023-08-12T07:03:36;3.70;;;2.55;;
79178;SDS011;68608;49.904;16.436;2023-08-12T07:06:03;2.80;;;2.60;;
79178;SDS011;68608;49.904;16.436;2023-08-12T07:08:29;3.70;;;2.63;;
79178;SDS011;68608;49.904;16.436;2023-08-12T07:10:56;4.03;;;2.70;;
79178;SDS011;68608;49.904;16.436;2023-08-12T07:13:22;2.83;;;2.63;;
79178;SDS011;68608;49.904;16.436;2023-08-12T07:15:48;3.33;;;2.83;;
79178;SDS011;68608;49.904;16.436;2023-08-12T07:18:14;2.47;;;2.30;;
79178;SDS011;68608;49.904;16.436;2023-08-12T07:20:40;3.22;;;2.92;;
79178;SDS011;68608;49.904;16.436;2023-08-12T07:23:07;3.03;;;2.78;;
79178;SDS011;68608;49.904;16.436;2023-08-12T07:25:33;3.85;;;2.58;;
79178;SDS011;68608;49.904;16.436;2023-08-12T07:27:59;3.03;;;2.53;;
79178;SDS011;68608;49.904;16.436;2023-08-12T07:30:27;3.95;;;2.65;;
79178;SDS011;68608;49.904;16.436;2023-08-12T07:32:53;4.65;;;2.90;;
79178;SDS011;68608;49.904;16.436;2023-08-12T07:35:20;2.40;;;2.30;;
79178;SDS011;68608;49.904;16.436;2023-08-12T07:37:46;3.90;;;2.97;;
79178;SDS011;68608;49.904;16.436;2023-08-12T07:40:12;3.08;;;2.70;;
79178;SDS011;68608;49.904;16.436;2023-08-12T07:42:38;3.08;;;2.60;;
79178;SDS011;68608;49.904;16.436;2023-08-12T07:45:04;4.07;;;2.72;;
79178;SDS011;68608;49.904;16.436;2023-08-12T07:47:30;4.28;;;2.72;;
79178;SDS011;68608;49.904;16.436;2023-08-12T07:49:56;4.75;;;3.08;;
79178;SDS011;68608;49.904;16.436;2023-08-12T07:52:23;3.20;;;2.53;;
79178;SDS011;68608;49.904;16.436;2023-08-12T07:54:49;2.75;;;2.50;;
79178;SDS011;68608;49.904;16.436;2023-08-12T07:57:15;2.88;;;2.67;;
79178;SDS011;68608;49.904;16.436;2023-08-12T07:59:41;3.45;;;3.00;;
79178;SDS011;68608;49.904;16.436;2023-08-12T08:02:07;3.40;;;2.70;;
79178;SDS011;68608;49.904;16.436;2023-08-12T08:04:33;2.92;;;2.60;;
79178;SDS011;68608;49.904;16.436;2023-08-12T08:07:00;3.10;;;2.80;;
79178;SDS011;68608;49.904;16.436;2023-08-12T08:09:26;2.67;;;2.35;;
79178;SDS011;68608;49.904;16.436;2023-08-12T08:11:52;3.70;;;2.92;;
79178;SDS011;68608;49.904;16.436;2023-08-12T08:14:18;3.08;;;2.40;;
79178;SDS011;68608;49.904;16.436;2023-08-12T08:16:47;3.17;;;2.78;;
79178;SDS011;68608;49.904;16.436;2023-08-12T08:19:13;3.13;;;2.53;;
79178;SDS011;68608;49.904;16.436;2023-08-12T08:21:39;3.65;;;2.95;;
79178;SDS011;68608;49.904;16.436;2023-08-12T08:24:05;4.05;;;2.47;;
79178;SDS011;68608;49.904;16.436;2023-08-12T08:26:31;3.30;;;3.00;;
79178;SDS011;68608;49.904;16.436;2023-08-12T08:28:57;3.08;;;2.30;;
79178;SDS011;68608;49.904;16.436;2023-08-12T08:31:24;2.53;;;2.28;;
79178;SDS011;68608;49.904;16.436;2023-08-12T08:33:50;2.97;;;2.60;;
79178;SDS011;68608;49.904;16.436;2023-08-12T08:36:16;2.72;;;2.53;;
79178;SDS011;68608;49.904;16.436;2023-08-12T08:38:43;4.40;;;2.83;;
79178;SDS011;68608;49.904;16.436;2023-08-12T08:41:09;3.03;;;2.75;;
79178;SDS011;68608;49.904;16.436;2023-08-12T08:43:36;2.72;;;2.53;;
79178;SDS011;68608;49.904;16.436;2023-08-12T08:46:02;3.15;;;2.40;;
79178;SDS011;68608;49.904;16.436;2023-08-12T08:48:29;2.85;;;2.65;;
79178;SDS011;68608;49.904;16.436;2023-08-12T08:50:55;2.88;;;2.40;;
79178;SDS011;68608;49.904;16.436;2023-08-12T08:53:21;3.60;;;2.65;;
79178;SDS011;68608;49.904;16.436;2023-08-12T08:55:47;3.00;;;2.30;;
79178;SDS011;68608;49.904;16.436;2023-08-12T08:58:13;2.58;;;2.38;;
79178;SDS011;68608;49.904;16.436;2023-08-12T09:00:39;2.30;;;1.90;;
79178;SDS011;68608;49.904;16.436;2023-08-12T09:03:06;4.88;;;2.63;;
79178;SDS011;68608;49.904;16.436;2023-08-12T09:05:33;2.75;;;2.30;;
79178;SDS011;68608;49.904;16.436;2023-08-12T09:07:59;2.85;;;2.55;;
79178;SDS011;68608;49.904;16.436;2023-08-12T09:10:26;5.25;;;2.65;;
79178;SDS011;68608;49.904;16.436;2023-08-12T09:12:56;2.58;;;2.38;;
79178;SDS011;68608;49.904;16.436;2023-08-12T09:15:22;2.47;;;2.28;;
79178;SDS011;68608;49.904;16.436;2023-08-12T09:17:49;3.65;;;2.25;;
79178;SDS011;68608;49.904;16.436;2023-08-12T09:20:15;2.05;;;1.90;;
79178;SDS011;68608;49.904;16.436;2023-08-12T09:22:41;2.72;;;2.50;;
79178;SDS011;68608;49.904;16.436;2023-08-12T09:25:07;2.10;;;1.90;;
79178;SDS011;68608;49.904;16.436;2023-08-12T09:27:35;2.65;;;2.45;;
79178;SDS011;68608;49.904;16.436;2023-08-12T09:30:03;3.63;;;2.40;;
79178;SDS011;68608;49.904;16.436;2023-08-12T09:32:29;2.95;;;2.00;;
79178;SDS011;68608;49.904;16.436;2023-08-12T09:34:56;3.47;;;2.38;;
79178;SDS011;68608;49.904;16.436;2023-08-12T09:37:23;2.50;;;2.30;;
79178;SDS011;68608;49.904;16.436;2023-08-12T09:39:50;2.55;;;2.25;;
79178;SDS011;68608;49.904;16.436;2023-08-12T09:42:16;2.60;;;2.22;;
79178;SDS011;68608;49.904;16.436;2023-08-12T09:44:42;3.00;;;2.15;;
79178;SDS011;68608;49.904;16.436;2023-08-12T09:47:09;4.00;;;2.08;;
79178;SDS011;68608;49.904;16.436;2023-08-12T09:49:35;2.78;;;2.50;;
79178;SDS011;68608;49.904;16.436;2023-08-12T09:52:02;3.72;;;2.63;;
79178;SDS011;68608;49.904;16.436;2023-08-12T09:54:28;2.70;;;2.28;;
79178;SDS011;68608;49.904;16.436;2023-08-12T09:56:57;1.80;;;1.70;;
79178;SDS011;68608;49.904;16.436;2023-08-12T09:59:30;2.95;;;2.17;;
79178;SDS011;68608;49.904;16.436;2023-08-12T10:01:57;2.08;;;1.98;;
79178;SDS011;68608;49.904;16.436;2023-08-12T10:04:29;3.05;;;2.10;;
79178;SDS011;68608;49.904;16.436;2023-08-12T10:06:58;2.40;;;2.20;;
79178;SDS011;68608;49.904;16.436;2023-08-12T10:09:25;3.08;;;2.78;;
79178;SDS011;68608;49.904;16.436;2023-08-12T10:11:51;2.13;;;1.92;;
79178;SDS011;68608;49.904;16.436;2023-08-12T10:14:18;2.55;;;2.22;;
79178;SDS011;68608;49.904;16.436;2023-08-12T10:16:45;2.58;;;2.00;;
79178;SDS011;68608;49.904;16.436;2023-08-12T10:19:12;2.42;;;2.15;;
79178;SDS011;68608;49.904;16.436;2023-08-12T10:21:38;2.65;;;2.45;;
79178;SDS011;68608;49.904;16.436;2023-08-12T10:24:05;2.15;;;2.00;;
79178;SDS011;68608;49.904;16.436;2023-08-12T10:26:32;3.80;;;1.90;;
79178;SDS011;68608;49.904;16.436;2023-08-12T10:28:59;2.30;;;2.10;;
79178;SDS011;68608;49.904;16.436;2023-08-12T10:31:26;2.42;;;1.83;;
79178;SDS011;68608;49.904;16.436;2023-08-12T10:33:58;1.70;;;1.60;;
79178;SDS011;68608;49.904;16.436;2023-08-12T10:36:25;2.50;;;2.30;;
79178;SDS011;68608;49.904;16.436;2023-08-12T10:38:52;2.42;;;1.80;;
79178;SDS011;68608;49.904;16.436;2023-08-12T10:41:21;2.58;;;2.20;;
79178;SDS011;68608;49.904;16.436;2023-08-12T10:43:48;4.53;;;2.03;;
79178;SDS011;68608;49.904;16.436;2023-08-12T10:46:21;4.28;;;2.10;;
79178;SDS011;68608;49.904;16.436;2023-08-12T10:48:57;2.20;;;1.75;;
79178;SDS011;68608;49.904;16.436;2023-08-12T10:51:44;2.42;;;1.88;;
79178;SDS011;68608;49.904;16.436;2023-08-12T11:02:19;2.60;;;1.80;;
79178;SDS011;68608;49.904;16.436;2023-08-12T11:04:53;2.40;;;1.65;;
79178;SDS011;68608;49.904;16.436;2023-08-12T11:07:20;2.80;;;1.90;;
79178;SDS011;68608;49.904;16.436;2023-08-12T11:09:48;2.20;;;1.90;;
79178;SDS011;68608;49.904;16.436;2023-08-12T11:12:17;2.75;;;1.67;;
79178;SDS011;68608;49.904;16.436;2023-08-12T11:14:53;2.10;;;1.65;;
79178;SDS011;68608;49.904;16.436;2023-08-12T11:17:19;1.70;;;1.60;;
79178;SDS011;68608;49.904;16.436;2023-08-12T11:19:45;2.53;;;1.80;;
79178;SDS011;68608;49.904;16.436;2023-08-12T11:22:12;1.60;;;1.50;;
79178;SDS011;68608;49.904;16.436;2023-08-12T11:24:41;3.65;;;2.08;;
79178;SDS011;68608;49.904;16.436;2023-08-12T11:27:09;1.80;;;1.67;;
79178;SDS011;68608;49.904;16.436;2023-08-12T11:29:36;2.10;;;1.90;;
79178;SDS011;68608;49.904;16.436;2023-08-12T11:32:03;3.20;;;2.00;;
79178;SDS011;68608;49.904;16.436;2023-08-12T11:34:29;2.38;;;2.17;;
79178;SDS011;68608;49.904;16.436;2023-08-12T11:36:56;3.45;;;1.90;;
79178;SDS011;68608;49.904;16.436;2023-08-12T11:39:22;3.25;;;2.15;;
79178;SDS011;68608;49.904;16.436;2023-08-12T11:41:48;2.22;;;2.03;;
79178;SDS011;68608;49.904;16.436;2023-08-12T11:44:15;2.15;;;1.85;;
79178;SDS011;68608;49.904;16.436;2023-08-12T11:46:42;2.00;;;1.80;;
79178;SDS011;68608;49.904;16.436;2023-08-12T11:49:08;2.25;;;2.05;;
79178;SDS011;68608;49.904;16.436;2023-08-12T11:51:34;2.55;;;2.35;;
79178;SDS011;68608;49.904;16.436;2023-08-12T11:54:01;2.15;;;1.80;;
79178;SDS011;68608;49.904;16.436;2023-08-12T11:56:27;2.25;;;2.10;;
79178;SDS011;68608;49.904;16.436;2023-08-12T11:58:53;3.70;;;2.00;;
79178;SDS011;68608;49.904;16.436;2023-08-12T12:01:20;4.43;;;1.85;;
79178;SDS011;68608;49.904;16.436;2023-08-12T12:03:51;3.63;;;2.22;;
79178;SDS011;68608;49.904;16.436;2023-08-12T12:06:17;2.30;;;2.00;;
79178;SDS011;68608;49.904;16.436;2023-08-12T12:08:44;2.50;;;2.05;;
79178;SDS011;68608;49.904;16.436;2023-08-12T12:11:10;2.28;;;1.88;;
79178;SDS011;68608;49.904;16.436;2023-08-12T12:13:36;2.88;;;1.80;;
79178;SDS011;68608;49.904;16.436;2023-08-12T12:16:02;2.85;;;2.00;;
79178;SDS011;68608;49.904;16.436;2023-08-12T12:18:28;1.90;;;1.80;;
79178;SDS011;68608;49.904;16.436;2023-08-12T12:20:55;1.92;;;1.67;;
79178;SDS011;68608;49.904;16.436;2023-08-12T12:23:22;2.38;;;1.95;;
79178;SDS011;68608;49.904;16.436;2023-08-12T12:25:48;2.10;;;1.90;;
79178;SDS011;68608;49.904;16.436;2023-08-12T12:28:14;3.38;;;2.25;;
79178;SDS011;68608;49.904;16.436;2023-08-12T12:30:40;1.70;;;1.60;;
79178;SDS011;68608;49.904;16.436;2023-08-12T12:33:06;2.05;;;1.80;;
79178;SDS011;68608;49.904;16.436;2023-08-12T12:35:32;2.40;;;1.95;;
79178;SDS011;68608;49.904;16.436;2023-08-12T12:37:58;1.80;;;1.60;;
79178;SDS011;68608;49.904;16.436;2023-08-12T12:40:24;2.20;;;1.77;;
79178;SDS011;68608;49.904;16.436;2023-08-12T12:42:50;2.38;;;1.88;;
79178;SDS011;68608;49.904;16.436;2023-08-12T12:45:16;1.70;;;1.60;;
79178;SDS011;68608;49.904;16.436;2023-08-12T12:47:42;2.00;;;1.75;;
79178;SDS011;68608;49.904;16.436;2023-08-12T12:50:08;2.10;;;1.88;;
79178;SDS011;68608;49.904;16.436;2023-08-12T12:52:35;3.78;;;2.10;;
79178;SDS011;68608;49.904;16.436;2023-08-12T12:55:01;1.92;;;1.73;;
79178;SDS011;68608;49.904;16.436;2023-08-12T12:57:29;2.55;;;1.95;;
79178;SDS011;68608;49.904;16.436;2023-08-12T12:59:55;3.15;;;1.60;;
79178;SDS011;68608;49.904;16.436;2023-08-12T13:02:21;2.20;;;1.50;;
79178;SDS011;68608;49.904;16.436;2023-08-12T13:04:47;2.70;;;1.63;;
79178;SDS011;68608;49.904;16.436;2023-08-12T13:07:14;2.13;;;1.65;;
79178;SDS011;68608;49.904;16.436;2023-08-12T13:09:40;2.00;;;1.90;;
79178;SDS011;68608;49.904;16.436;2023-08-12T13:12:06;1.63;;;1.50;;
79178;SDS011;68608;49.904;16.436;2023-08-12T13:14:32;3.35;;;1.98;;
79178;SDS011;68608;49.904;16.436;2023-08-12T13:16:59;2.75;;;1.67;;
79178;SDS011;68608;49.904;16.436;2023-08-12T13:19:25;3.63;;;1.65;;
79178;SDS011;68608;49.904;16.436;2023-08-12T13:21:51;3.88;;;2.20;;
79178;SDS011;68608;49.904;16.436;2023-08-12T13:24:17;2.20;;;2.00;;
79178;SDS011;68608;49.904;16.436;2023-08-12T13:26:43;2.13;;;1.90;;
79178;SDS011;68608;49.904;16.436;2023-08-12T13:29:09;2.45;;;1.92;;
79178;SDS011;68608;49.904;16.436;2023-08-12T13:31:35;6.22;;;2.40;;
79178;SDS011;68608;49.904;16.436;2023-08-12T13:34:01;2.30;;;1.85;;
79178;SDS011;68608;49.904;16.436;2023-08-12T13:36:28;2.53;;;2.17;;
79178;SDS011;68608;49.904;16.436;2023-08-12T13:38:55;1.52;;;1.30;;
79178;SDS011;68608;49.904;16.436;2023-08-12T13:41:21;2.20;;;2.00;;
79178;SDS011;68608;49.904;16.436;2023-08-12T13:43:47;2.22;;;2.00;;
79178;SDS011;68608;49.904;16.436;2023-08-12T13:46:13;1.95;;;1.77;;
79178;SDS011;68608;49.904;16.436;2023-08-12T13:48:39;2.42;;;1.73;;
79178;SDS011;68608;49.904;16.436;2023-08-12T13:51:07;5.30;;;2.45;;
79178;SDS011;68608;49.904;16.436;2023-08-12T13:53:33;3.15;;;2.17;;
79178;SDS011;68608;49.904;16.436;2023-08-12T13:55:59;2.85;;;1.75;;
79178;SDS011;68608;49.904;16.436;2023-08-12T13:58:25;2.92;;;2.25;;
79178;SDS011;68608;49.904;16.436;2023-08-12T14:00:51;2.80;;;1.92;;
79178;SDS011;68608;49.904;16.436;2023-08-12T14:03:17;1.95;;;1.80;;
79178;SDS011;68608;49.904;16.436;2023-08-12T14:05:43;2.10;;;1.90;;
79178;SDS011;68608;49.904;16.436;2023-08-12T14:08:10;2.97;;;1.73;;
79178;SDS011;68608;49.904;16.436;2023-08-12T14:10:36;2.30;;;1.55;;
79178;SDS011;68608;49.904;16.436;2023-08-12T14:13:02;2.15;;;1.92;;
79178;SDS011;68608;49.904;16.436;2023-08-12T14:15:28;5.13;;;2.30;;
79178;SDS011;68608;49.904;16.436;2023-08-12T14:17:54;3.17;;;1.85;;
79178;SDS011;68608;49.904;16.436;2023-08-12T14:20:20;3.08;;;1.80;;
79178;SDS011;68608;49.904;16.436;2023-08-12T14:22:46;1.90;;;1.80;;
79178;SDS011;68608;49.904;16.436;2023-08-12T14:25:13;1.73;;;1.63;;
79178;SDS011;68608;49.904;16.436;2023-08-12T14:27:39;2.75;;;1.90;;
79178;SDS011;68608;49.904;16.436;2023-08-12T14:30:05;1.73;;;1.60;;
79178;SDS011;68608;49.904;16.436;2023-08-12T14:32:31;1.83;;;1.73;;
79178;SDS011;68608;49.904;16.436;2023-08-12T14:34:57;1.65;;;1.55;;
79178;SDS011;68608;49.904;16.436;2023-08-12T14:37:23;2.10;;;2.00;;